sensor_id;sensor_type;location;lat;lon;timestamp;temperature;humidity
67275;DHT22;55463;52.324;5.122;2023-08-21T00:00:42;17.06;89.50
67275;DHT22;55463;52.324;5.122;2023-08-21T00:03:07;17.06;90.50
67275;DHT22;55463;52.324;5.122;2023-08-21T00:05:33;17.04;91.86
67275;DHT22;55463;52.324;5.122;2023-08-21T00:07:58;17.06;90.38
67275;DHT22;55463;52.324;5.122;2023-08-21T00:10:24;17.03;91.26
67275;DHT22;55463;52.324;5.122;2023-08-21T00:12:49;17.01;90.78
67275;DHT22;55463;52.324;5.122;2023-08-21T00:15:14;17.01;91.64
67275;DHT22;55463;52.324;5.122;2023-08-21T00:17:40;16.99;89.43
67275;DHT22;55463;52.324;5.122;2023-08-21T00:20:05;16.94;90.04
67275;DHT22;55463;52.324;5.122;2023-08-21T00:22:35;17.00;90.07
67275;DHT22;55463;52.324;5.122;2023-08-21T00:25:00;16.97;91.01
67275;DHT22;55463;52.324;5.122;2023-08-21T00:27:25;16.97;90.99
67275;DHT22;55463;52.324;5.122;2023-08-21T00:29:51;16.95;91.23
67275;DHT22;55463;52.324;5.122;2023-08-21T00:32:16;16.94;90.30
67275;DHT22;55463;52.324;5.122;2023-08-21T00:34:42;16.94;90.40
67275;DHT22;55463;52.324;5.122;2023-08-21T00:37:07;16.88;89.88
67275;DHT22;55463;52.324;5.122;2023-08-21T00:39:33;16.88;90.75
67275;DHT22;55463;52.324;5.122;2023-08-21T00:41:58;16.85;90.10
67275;DHT22;55463;52.324;5.122;2023-08-21T00:44:23;16.84;90.69
67275;DHT22;55463;52.324;5.122;2023-08-21T00:46:49;16.81;90.68
67275;DHT22;55463;52.324;5.122;2023-08-21T00:49:14;16.80;91.09
67275;DHT22;55463;52.324;5.122;2023-08-21T00:51:40;16.76;90.73
67275;DHT22;55463;52.324;5.122;2023-08-21T00:54:05;16.76;91.17
67275;DHT22;55463;52.324;5.122;2023-08-21T00:56:31;16.77;90.83
67275;DHT22;55463;52.324;5.122;2023-08-21T00:58:56;16.74;90.01
67275;DHT22;55463;52.324;5.122;2023-08-21T01:01:24;16.70;90.22
67275;DHT22;55463;52.324;5.122;2023-08-21T01:03:52;16.66;89.74
67275;DHT22;55463;52.324;5.122;2023-08-21T01:06:19;16.66;91.62
67275;DHT22;55463;52.324;5.122;2023-08-21T01:11:54;16.65;91.43
67275;DHT22;55463;52.324;5.122;2023-08-21T01:17:11;16.65;92.34
67275;DHT22;55463;52.324;5.122;2023-08-21T01:19:42;16.63;91.13
67275;DHT22;55463;52.324;5.122;2023-08-21T01:22:08;16.62;91.01
67275;DHT22;55463;52.324;5.122;2023-08-21T01:24:33;16.60;91.85
67275;DHT22;55463;52.324;5.122;2023-08-21T01:26:59;16.62;92.02
67275;DHT22;55463;52.324;5.122;2023-08-21T01:29:25;16.62;91.67
67275;DHT22;55463;52.324;5.122;2023-08-21T01:32:06;16.59;91.78
67275;DHT22;55463;52.324;5.122;2023-08-21T01:34:34;16.62;92.51
67275;DHT22;55463;52.324;5.122;2023-08-21T01:37:00;16.65;93.34
67275;DHT22;55463;52.324;5.122;2023-08-21T01:39:26;16.65;92.93
67275;DHT22;55463;52.324;5.122;2023-08-21T01:41:52;16.65;93.86
67275;DHT22;55463;52.324;5.122;2023-08-21T01:44:18;16.67;92.82
67275;DHT22;55463;52.324;5.122;2023-08-21T01:46:43;16.67;93.00
67275;DHT22;55463;52.324;5.122;2023-08-21T01:49:08;16.65;93.25
67275;DHT22;55463;52.324;5.122;2023-08-21T01:51:34;16.66;92.48
67275;DHT22;55463;52.324;5.122;2023-08-21T01:53:59;16.65;93.36
67275;DHT22;55463;52.324;5.122;2023-08-21T01:56:24;16.65;93.02
67275;DHT22;55463;52.324;5.122;2023-08-21T01:58:50;16.63;92.88
67275;DHT22;55463;52.324;5.122;2023-08-21T02:01:15;16.66;93.68
67275;DHT22;55463;52.324;5.122;2023-08-21T02:03:41;16.63;93.47
67275;DHT22;55463;52.324;5.122;2023-08-21T02:06:06;16.62;93.32
67275;DHT22;55463;52.324;5.122;2023-08-21T02:08:32;16.62;92.68
67275;DHT22;55463;52.324;5.122;2023-08-21T02:10:58;16.59;92.28
67275;DHT22;55463;52.324;5.122;2023-08-21T02:13:23;16.57;91.75
67275;DHT22;55463;52.324;5.122;2023-08-21T02:15:49;16.53;91.38
67275;DHT22;55463;52.324;5.122;2023-08-21T02:18:14;16.52;92.31
67275;DHT22;55463;52.324;5.122;2023-08-21T02:20:40;16.52;91.81
67275;DHT22;55463;52.324;5.122;2023-08-21T02:23:05;16.51;92.11
67275;DHT22;55463;52.324;5.122;2023-08-21T02:25:31;16.48;91.83
67275;DHT22;55463;52.324;5.122;2023-08-21T02:27:57;16.49;91.65
67275;DHT22;55463;52.324;5.122;2023-08-21T02:30:22;16.45;91.22
67275;DHT22;55463;52.324;5.122;2023-08-21T02:32:51;16.39;91.48
67275;DHT22;55463;52.324;5.122;2023-08-21T02:35:17;16.33;91.34
67275;DHT22;55463;52.324;5.122;2023-08-21T02:37:42;16.33;90.93
67275;DHT22;55463;52.324;5.122;2023-08-21T02:40:08;16.28;91.07
67275;DHT22;55463;52.324;5.122;2023-08-21T02:42:34;16.25;90.88
67275;DHT22;55463;52.324;5.122;2023-08-21T02:45:00;16.21;91.14
67275;DHT22;55463;52.324;5.122;2023-08-21T02:47:28;16.17;91.70
67275;DHT22;55463;52.324;5.122;2023-08-21T02:49:54;16.14;90.95
67275;DHT22;55463;52.324;5.122;2023-08-21T02:52:19;16.10;91.34
67275;DHT22;55463;52.324;5.122;2023-08-21T02:54:44;16.05;90.98
67275;DHT22;55463;52.324;5.122;2023-08-21T02:57:10;16.05;90.68
67275;DHT22;55463;52.324;5.122;2023-08-21T02:59:35;16.01;91.04
67275;DHT22;55463;52.324;5.122;2023-08-21T03:02:01;16.00;91.12
67275;DHT22;55463;52.324;5.122;2023-08-21T03:04:26;15.96;91.16
67275;DHT22;55463;52.324;5.122;2023-08-21T03:06:51;15.93;91.08
67275;DHT22;55463;52.324;5.122;2023-08-21T03:09:17;15.90;91.03
67275;DHT22;55463;52.324;5.122;2023-08-21T03:11:42;15.87;90.81
67275;DHT22;55463;52.324;5.122;2023-08-21T03:14:07;15.83;90.54
67275;DHT22;55463;52.324;5.122;2023-08-21T03:16:33;15.83;90.81
67275;DHT22;55463;52.324;5.122;2023-08-21T03:18:59;15.79;90.88
67275;DHT22;55463;52.324;5.122;2023-08-21T03:21:25;15.76;91.19
67275;DHT22;55463;52.324;5.122;2023-08-21T03:23:56;15.71;90.81
67275;DHT22;55463;52.324;5.122;2023-08-21T03:26:22;15.71;91.83
67275;DHT22;55463;52.324;5.122;2023-08-21T03:28:48;15.71;91.05
67275;DHT22;55463;52.324;5.122;2023-08-21T03:31:14;15.70;90.95
67275;DHT22;55463;52.324;5.122;2023-08-21T03:33:39;15.69;91.04
67275;DHT22;55463;52.324;5.122;2023-08-21T03:36:05;15.63;90.79
67275;DHT22;55463;52.324;5.122;2023-08-21T03:38:30;15.62;91.72
67275;DHT22;55463;52.324;5.122;2023-08-21T03:40:55;15.59;90.96
67275;DHT22;55463;52.324;5.122;2023-08-21T03:43:21;15.58;90.83
67275;DHT22;55463;52.324;5.122;2023-08-21T03:45:46;15.58;90.79
67275;DHT22;55463;52.324;5.122;2023-08-21T03:48:12;15.53;91.01
67275;DHT22;55463;52.324;5.122;2023-08-21T03:50:38;15.53;90.98
67275;DHT22;55463;52.324;5.122;2023-08-21T03:53:03;15.53;90.77
67275;DHT22;55463;52.324;5.122;2023-08-21T03:55:29;15.52;91.26
67275;DHT22;55463;52.324;5.122;2023-08-21T03:57:54;15.48;91.15
67275;DHT22;55463;52.324;5.122;2023-08-21T04:00:20;15.45;90.71
67275;DHT22;55463;52.324;5.122;2023-08-21T04:02:45;15.41;91.43
67275;DHT22;55463;52.324;5.122;2023-08-21T04:05:10;15.39;92.13
67275;DHT22;55463;52.324;5.122;2023-08-21T04:07:37;15.39;91.61
67275;DHT22;55463;52.324;5.122;2023-08-21T04:10:02;15.41;92.94
67275;DHT22;55463;52.324;5.122;2023-08-21T04:12:28;15.43;93.15
67275;DHT22;55463;52.324;5.122;2023-08-21T04:14:54;15.41;92.29
67275;DHT22;55463;52.324;5.122;2023-08-21T04:17:23;15.38;92.41
67275;DHT22;55463;52.324;5.122;2023-08-21T04:19:49;15.36;91.63
67275;DHT22;55463;52.324;5.122;2023-08-21T04:22:14;15.32;91.97
67275;DHT22;55463;52.324;5.122;2023-08-21T04:24:41;15.31;91.76
67275;DHT22;55463;52.324;5.122;2023-08-21T04:27:06;15.27;91.77
67275;DHT22;55463;52.324;5.122;2023-08-21T04:29:31;15.27;91.68
67275;DHT22;55463;52.324;5.122;2023-08-21T04:31:57;15.22;91.63
67275;DHT22;55463;52.324;5.122;2023-08-21T04:34:22;15.22;91.38
67275;DHT22;55463;52.324;5.122;2023-08-21T04:36:47;15.21;91.09
67275;DHT22;55463;52.324;5.122;2023-08-21T04:39:14;15.22;91.38
67275;DHT22;55463;52.324;5.122;2023-08-21T04:41:41;15.20;91.22
67275;DHT22;55463;52.324;5.122;2023-08-21T04:44:06;15.20;91.42
67275;DHT22;55463;52.324;5.122;2023-08-21T04:46:32;15.21;92.13
67275;DHT22;55463;52.324;5.122;2023-08-21T04:48:57;15.20;91.81
67275;DHT22;55463;52.324;5.122;2023-08-21T04:51:23;15.21;92.32
67275;DHT22;55463;52.324;5.122;2023-08-21T04:53:48;15.20;91.85
67275;DHT22;55463;52.324;5.122;2023-08-21T04:56:13;15.21;91.89
67275;DHT22;55463;52.324;5.122;2023-08-21T04:58:39;15.24;92.10
67275;DHT22;55463;52.324;5.122;2023-08-21T05:01:05;15.22;92.12
67275;DHT22;55463;52.324;5.122;2023-08-21T05:03:30;15.22;91.98
67275;DHT22;55463;52.324;5.122;2023-08-21T05:05:56;15.22;91.78
67275;DHT22;55463;52.324;5.122;2023-08-21T05:08:23;15.24;92.05
67275;DHT22;55463;52.324;5.122;2023-08-21T05:10:57;15.30;92.32
67275;DHT22;55463;52.324;5.122;2023-08-21T05:13:22;15.31;92.44
67275;DHT22;55463;52.324;5.122;2023-08-21T05:15:55;15.34;92.63
67275;DHT22;55463;52.324;5.122;2023-08-21T05:18:22;15.36;93.24
67275;DHT22;55463;52.324;5.122;2023-08-21T05:20:48;15.41;92.71
67275;DHT22;55463;52.324;5.122;2023-08-21T05:23:14;15.45;93.06
67275;DHT22;55463;52.324;5.122;2023-08-21T05:25:40;15.50;94.03
67275;DHT22;55463;52.324;5.122;2023-08-21T05:28:06;15.56;93.48
67275;DHT22;55463;52.324;5.122;2023-08-21T05:30:31;15.63;94.63
67275;DHT22;55463;52.324;5.122;2023-08-21T05:32:57;15.69;94.74
67275;DHT22;55463;52.324;5.122;2023-08-21T05:35:22;15.76;95.49
67275;DHT22;55463;52.324;5.122;2023-08-21T05:37:48;15.79;94.58
67275;DHT22;55463;52.324;5.122;2023-08-21T05:40:14;15.83;93.98
67275;DHT22;55463;52.324;5.122;2023-08-21T05:42:39;15.83;94.50
67275;DHT22;55463;52.324;5.122;2023-08-21T05:45:05;15.91;94.17
67275;DHT22;55463;52.324;5.122;2023-08-21T05:47:30;16.00;94.56
67275;DHT22;55463;52.324;5.122;2023-08-21T05:49:56;16.04;94.48
67275;DHT22;55463;52.324;5.122;2023-08-21T05:52:22;16.08;94.40
67275;DHT22;55463;52.324;5.122;2023-08-21T05:54:50;16.11;94.57
67275;DHT22;55463;52.324;5.122;2023-08-21T05:57:15;16.17;94.04
67275;DHT22;55463;52.324;5.122;2023-08-21T05:59:45;16.21;94.02
67275;DHT22;55463;52.324;5.122;2023-08-21T06:02:11;16.25;94.38
67275;DHT22;55463;52.324;5.122;2023-08-21T06:04:39;16.29;94.88
67275;DHT22;55463;52.324;5.122;2023-08-21T06:07:05;16.38;95.57
67275;DHT22;55463;52.324;5.122;2023-08-21T06:09:30;16.42;95.61
67275;DHT22;55463;52.324;5.122;2023-08-21T06:12:04;16.51;94.85
67275;DHT22;55463;52.324;5.122;2023-08-21T06:14:30;16.57;96.03
67275;DHT22;55463;52.324;5.122;2023-08-21T06:17:00;16.66;95.79
67275;DHT22;55463;52.324;5.122;2023-08-21T06:19:26;16.72;96.13
67275;DHT22;55463;52.324;5.122;2023-08-21T06:21:52;16.81;96.09
67275;DHT22;55463;52.324;5.122;2023-08-21T06:24:17;16.88;95.86
67275;DHT22;55463;52.324;5.122;2023-08-21T06:26:42;16.99;96.13
67275;DHT22;55463;52.324;5.122;2023-08-21T06:29:08;17.08;96.38
67275;DHT22;55463;52.324;5.122;2023-08-21T06:31:33;17.20;96.36
67275;DHT22;55463;52.324;5.122;2023-08-21T06:33:59;17.31;96.39
67275;DHT22;55463;52.324;5.122;2023-08-21T06:36:24;17.38;96.63
67275;DHT22;55463;52.324;5.122;2023-08-21T06:38:50;17.50;96.46
67275;DHT22;55463;52.324;5.122;2023-08-21T06:41:15;17.62;96.91
67275;DHT22;55463;52.324;5.122;2023-08-21T06:43:40;17.93;96.91
67275;DHT22;55463;52.324;5.122;2023-08-21T06:46:07;18.60;97.25
67275;DHT22;55463;52.324;5.122;2023-08-21T06:48:32;19.17;98.06
67275;DHT22;55463;52.324;5.122;2023-08-21T06:50:57;19.76;96.45
67275;DHT22;55463;52.324;5.122;2023-08-21T06:53:23;20.35;93.15
67275;DHT22;55463;52.324;5.122;2023-08-21T06:55:48;20.84;89.13
67275;DHT22;55463;52.324;5.122;2023-08-21T06:58:13;21.62;92.18
67275;DHT22;55463;52.324;5.122;2023-08-21T07:00:39;22.03;89.33
67275;DHT22;55463;52.324;5.122;2023-08-21T07:03:04;22.51;88.21
67275;DHT22;55463;52.324;5.122;2023-08-21T07:05:35;22.93;85.58
67275;DHT22;55463;52.324;5.122;2023-08-21T07:08:00;23.52;84.32
67275;DHT22;55463;52.324;5.122;2023-08-21T07:10:26;23.99;82.49
67275;DHT22;55463;52.324;5.122;2023-08-21T07:12:53;24.29;79.79
67275;DHT22;55463;52.324;5.122;2023-08-21T07:15:18;24.41;78.54
67275;DHT22;55463;52.324;5.122;2023-08-21T07:17:44;24.58;77.59
67275;DHT22;55463;52.324;5.122;2023-08-21T07:20:09;24.25;77.31
67275;DHT22;55463;52.324;5.122;2023-08-21T07:22:35;23.83;77.25
67275;DHT22;55463;52.324;5.122;2023-08-21T07:25:01;24.20;79.83
67275;DHT22;55463;52.324;5.122;2023-08-21T07:27:30;23.94;76.60
67275;DHT22;55463;52.324;5.122;2023-08-21T07:29:55;24.32;78.25
67275;DHT22;55463;52.324;5.122;2023-08-21T07:32:21;24.54;75.03
67275;DHT22;55463;52.324;5.122;2023-08-21T07:34:46;24.97;74.75
67275;DHT22;55463;52.324;5.122;2023-08-21T07:37:12;25.52;75.99
67275;DHT22;55463;52.324;5.122;2023-08-21T07:39:37;25.73;72.84
67275;DHT22;55463;52.324;5.122;2023-08-21T07:42:02;26.25;73.26
67275;DHT22;55463;52.324;5.122;2023-08-21T07:44:28;26.31;70.51
67275;DHT22;55463;52.324;5.122;2023-08-21T07:46:53;26.61;71.88
67275;DHT22;55463;52.324;5.122;2023-08-21T07:49:19;26.55;70.74
67275;DHT22;55463;52.324;5.122;2023-08-21T07:51:44;26.97;69.07
67275;DHT22;55463;52.324;5.122;2023-08-21T07:54:09;27.18;69.00
67275;DHT22;55463;52.324;5.122;2023-08-21T07:56:35;27.45;69.90
67275;DHT22;55463;52.324;5.122;2023-08-21T07:59:02;27.76;68.27
67275;DHT22;55463;52.324;5.122;2023-08-21T08:01:27;28.04;66.80
67275;DHT22;55463;52.324;5.122;2023-08-21T08:03:52;28.40;67.23
67275;DHT22;55463;52.324;5.122;2023-08-21T08:06:18;28.49;65.57
67275;DHT22;55463;52.324;5.122;2023-08-21T08:08:44;29.03;65.37
67275;DHT22;55463;52.324;5.122;2023-08-21T08:11:09;28.91;65.83
67275;DHT22;55463;52.324;5.122;2023-08-21T08:13:35;29.31;65.73
67275;DHT22;55463;52.324;5.122;2023-08-21T08:16:00;29.27;63.62
67275;DHT22;55463;52.324;5.122;2023-08-21T08:18:26;29.76;64.06
67275;DHT22;55463;52.324;5.122;2023-08-21T08:20:51;29.88;62.87
67275;DHT22;55463;52.324;5.122;2023-08-21T08:23:19;29.88;61.86
67275;DHT22;55463;52.324;5.122;2023-08-21T08:25:45;29.96;61.30
67275;DHT22;55463;52.324;5.122;2023-08-21T08:28:10;29.61;60.98
67275;DHT22;55463;52.324;5.122;2023-08-21T08:30:35;29.54;60.66
67275;DHT22;55463;52.324;5.122;2023-08-21T08:33:01;29.62;62.13
67275;DHT22;55463;52.324;5.122;2023-08-21T08:35:26;29.85;61.27
67275;DHT22;55463;52.324;5.122;2023-08-21T08:37:51;29.98;61.51
67275;DHT22;55463;52.324;5.122;2023-08-21T08:40:17;29.89;61.89
67275;DHT22;55463;52.324;5.122;2023-08-21T08:42:43;29.85;61.11
67275;DHT22;55463;52.324;5.122;2023-08-21T08:45:08;30.23;61.86
67275;DHT22;55463;52.324;5.122;2023-08-21T08:47:34;30.19;59.84
67275;DHT22;55463;52.324;5.122;2023-08-21T08:50:05;30.38;60.91
67275;DHT22;55463;52.324;5.122;2023-08-21T08:52:34;30.03;59.53
67275;DHT22;55463;52.324;5.122;2023-08-21T08:55:00;29.89;59.18
67275;DHT22;55463;52.324;5.122;2023-08-21T08:57:26;29.64;58.97
67275;DHT22;55463;52.324;5.122;2023-08-21T08:59:51;29.64;59.44
67275;DHT22;55463;52.324;5.122;2023-08-21T09:02:17;30.88;60.78
67275;DHT22;55463;52.324;5.122;2023-08-21T09:04:42;31.17;59.41
67275;DHT22;55463;52.324;5.122;2023-08-21T09:07:08;30.81;57.64
67275;DHT22;55463;52.324;5.122;2023-08-21T09:09:45;31.54;57.94
67275;DHT22;55463;52.324;5.122;2023-08-21T09:12:13;30.79;58.27
67275;DHT22;55463;52.324;5.122;2023-08-21T09:14:39;31.58;58.02
67275;DHT22;55463;52.324;5.122;2023-08-21T09:17:06;32.20;57.61
67275;DHT22;55463;52.324;5.122;2023-08-21T09:19:31;32.51;55.91
67275;DHT22;55463;52.324;5.122;2023-08-21T09:21:57;32.29;56.01
67275;DHT22;55463;52.324;5.122;2023-08-21T09:24:23;31.97;56.51
67275;DHT22;55463;52.324;5.122;2023-08-21T09:26:49;32.67;57.49
67275;DHT22;55463;52.324;5.122;2023-08-21T09:29:14;32.37;55.72
67275;DHT22;55463;52.324;5.122;2023-08-21T09:31:39;31.84;55.68
67275;DHT22;55463;52.324;5.122;2023-08-21T09:34:05;31.93;57.29
67275;DHT22;55463;52.324;5.122;2023-08-21T09:36:31;32.24;57.41
67275;DHT22;55463;52.324;5.122;2023-08-21T09:38:56;32.79;56.26
67275;DHT22;55463;52.324;5.122;2023-08-21T09:41:23;32.70;55.48
67275;DHT22;55463;52.324;5.122;2023-08-21T09:43:49;33.22;55.96
67275;DHT22;55463;52.324;5.122;2023-08-21T09:46:15;33.22;55.30
67275;DHT22;55463;52.324;5.122;2023-08-21T09:48:45;33.45;55.55
67275;DHT22;55463;52.324;5.122;2023-08-21T09:51:13;33.54;54.96
67275;DHT22;55463;52.324;5.122;2023-08-21T09:53:38;34.20;56.08
67275;DHT22;55463;52.324;5.122;2023-08-21T09:56:05;33.08;53.54
67275;DHT22;55463;52.324;5.122;2023-08-21T09:58:31;33.29;55.10
67275;DHT22;55463;52.324;5.122;2023-08-21T10:00:58;33.45;55.15
67275;DHT22;55463;52.324;5.122;2023-08-21T10:03:24;33.23;54.88
67275;DHT22;55463;52.324;5.122;2023-08-21T10:05:51;32.94;54.57
67275;DHT22;55463;52.324;5.122;2023-08-21T10:08:21;32.53;53.89
67275;DHT22;55463;52.324;5.122;2023-08-21T10:10:48;33.08;55.24
67275;DHT22;55463;52.324;5.122;2023-08-21T10:13:14;33.75;55.38
67275;DHT22;55463;52.324;5.122;2023-08-21T10:15:40;33.64;55.69
67275;DHT22;55463;52.324;5.122;2023-08-21T10:18:23;33.74;54.06
67275;DHT22;55463;52.324;5.122;2023-08-21T10:20:49;33.78;55.36
67275;DHT22;55463;52.324;5.122;2023-08-21T10:23:50;33.51;53.02
67275;DHT22;55463;52.324;5.122;2023-08-21T10:26:21;33.82;54.03
67275;DHT22;55463;52.324;5.122;2023-08-21T10:28:54;34.10;54.58
67275;DHT22;55463;52.324;5.122;2023-08-21T10:31:37;34.08;52.69
67275;DHT22;55463;52.324;5.122;2023-08-21T10:34:09;34.32;54.29
67275;DHT22;55463;52.324;5.122;2023-08-21T10:39:20;34.74;52.49
67275;DHT22;55463;52.324;5.122;2023-08-21T10:42:12;34.40;52.34
67275;DHT22;55463;52.324;5.122;2023-08-21T10:47:21;34.56;53.47
67275;DHT22;55463;52.324;5.122;2023-08-21T10:49:51;35.02;53.69
67275;DHT22;55463;52.324;5.122;2023-08-21T10:52:22;34.98;51.77
67275;DHT22;55463;52.324;5.122;2023-08-21T10:54:50;34.61;50.96
67275;DHT22;55463;52.324;5.122;2023-08-21T10:57:28;34.44;52.33
67275;DHT22;55463;52.324;5.122;2023-08-21T10:59:58;34.44;52.22
67275;DHT22;55463;52.324;5.122;2023-08-21T11:02:26;33.94;51.85
67275;DHT22;55463;52.324;5.122;2023-08-21T11:04:52;34.40;51.45
67275;DHT22;55463;52.324;5.122;2023-08-21T11:07:18;34.18;53.45
67275;DHT22;55463;52.324;5.122;2023-08-21T11:09:44;33.92;52.37
67275;DHT22;55463;52.324;5.122;2023-08-21T11:12:15;34.26;53.09
67275;DHT22;55463;52.324;5.122;2023-08-21T11:14:41;34.52;49.88
67275;DHT22;55463;52.324;5.122;2023-08-21T11:17:08;34.23;51.06
67275;DHT22;55463;52.324;5.122;2023-08-21T11:19:34;33.63;50.55
67275;DHT22;55463;52.324;5.122;2023-08-21T11:22:03;33.39;51.79
67275;DHT22;55463;52.324;5.122;2023-08-21T11:24:50;33.27;52.23
67275;DHT22;55463;52.324;5.122;2023-08-21T11:27:17;32.94;54.61
67275;DHT22;55463;52.324;5.122;2023-08-21T11:29:48;33.60;54.70
67275;DHT22;55463;52.324;5.122;2023-08-21T11:32:19;33.05;50.52
67275;DHT22;55463;52.324;5.122;2023-08-21T11:34:51;32.61;52.84
67275;DHT22;55463;52.324;5.122;2023-08-21T11:37:21;32.17;56.39
67275;DHT22;55463;52.324;5.122;2023-08-21T11:39:55;31.97;53.65
67275;DHT22;55463;52.324;5.122;2023-08-21T11:42:22;32.72;55.99
67275;DHT22;55463;52.324;5.122;2023-08-21T11:44:52;31.82;52.80
67275;DHT22;55463;52.324;5.122;2023-08-21T11:47:20;31.65;55.08
67275;DHT22;55463;52.324;5.122;2023-08-21T11:49:46;31.88;54.27
67275;DHT22;55463;52.324;5.122;2023-08-21T11:52:22;31.78;53.40
67275;DHT22;55463;52.324;5.122;2023-08-21T11:54:51;32.23;54.43
67275;DHT22;55463;52.324;5.122;2023-08-21T11:57:17;32.54;53.43
67275;DHT22;55463;52.324;5.122;2023-08-21T11:59:43;32.56;53.00
67275;DHT22;55463;52.324;5.122;2023-08-21T12:02:18;32.20;51.87
67275;DHT22;55463;52.324;5.122;2023-08-21T12:04:43;32.54;53.78
67275;DHT22;55463;52.324;5.122;2023-08-21T12:07:09;32.50;51.49
67275;DHT22;55463;52.324;5.122;2023-08-21T12:09:35;32.81;50.30
67275;DHT22;55463;52.324;5.122;2023-08-21T12:12:00;32.51;50.16
67275;DHT22;55463;52.324;5.122;2023-08-21T12:14:27;31.86;48.07
67275;DHT22;55463;52.324;5.122;2023-08-21T12:16:53;32.05;50.80
67275;DHT22;55463;52.324;5.122;2023-08-21T12:19:19;32.10;50.34
67275;DHT22;55463;52.324;5.122;2023-08-21T12:21:44;32.95;52.36
67275;DHT22;55463;52.324;5.122;2023-08-21T12:24:10;33.13;49.81
67275;DHT22;55463;52.324;5.122;2023-08-21T12:26:35;33.02;50.76
67275;DHT22;55463;52.324;5.122;2023-08-21T12:29:01;33.18;50.15
67275;DHT22;55463;52.324;5.122;2023-08-21T12:31:27;33.25;49.28
67275;DHT22;55463;52.324;5.122;2023-08-21T12:33:53;33.08;48.32
67275;DHT22;55463;52.324;5.122;2023-08-21T12:36:18;32.89;47.29
67275;DHT22;55463;52.324;5.122;2023-08-21T12:38:44;33.03;48.59
67275;DHT22;55463;52.324;5.122;2023-08-21T12:41:10;32.61;46.51
67275;DHT22;55463;52.324;5.122;2023-08-21T12:43:35;33.34;49.10
67275;DHT22;55463;52.324;5.122;2023-08-21T12:46:00;32.94;47.49
67275;DHT22;55463;52.324;5.122;2023-08-21T12:48:26;33.15;49.33
67275;DHT22;55463;52.324;5.122;2023-08-21T12:50:51;33.34;49.11
67275;DHT22;55463;52.324;5.122;2023-08-21T12:53:17;33.23;49.64
67275;DHT22;55463;52.324;5.122;2023-08-21T12:55:42;33.33;50.92
67275;DHT22;55463;52.324;5.122;2023-08-21T12:58:08;33.26;49.70
67275;DHT22;55463;52.324;5.122;2023-08-21T13:00:33;33.36;51.16
67275;DHT22;55463;52.324;5.122;2023-08-21T13:02:59;33.60;51.24
67275;DHT22;55463;52.324;5.122;2023-08-21T13:05:24;33.39;50.38
67275;DHT22;55463;52.324;5.122;2023-08-21T13:07:50;32.67;51.60
67275;DHT22;55463;52.324;5.122;2023-08-21T13:10:15;32.89;51.62
67275;DHT22;55463;52.324;5.122;2023-08-21T13:12:41;32.92;50.21
67275;DHT22;55463;52.324;5.122;2023-08-21T13:15:06;32.57;50.55
67275;DHT22;55463;52.324;5.122;2023-08-21T13:17:35;32.34;51.88
67275;DHT22;55463;52.324;5.122;2023-08-21T13:20:00;32.27;51.51
67275;DHT22;55463;52.324;5.122;2023-08-21T13:22:25;31.77;53.47
67275;DHT22;55463;52.324;5.122;2023-08-21T13:24:51;31.85;52.42
67275;DHT22;55463;52.324;5.122;2023-08-21T13:27:16;31.02;51.78
67275;DHT22;55463;52.324;5.122;2023-08-21T13:29:42;30.88;53.38
67275;DHT22;55463;52.324;5.122;2023-08-21T13:32:07;30.79;52.84
67275;DHT22;55463;52.324;5.122;2023-08-21T13:34:33;31.04;53.05
67275;DHT22;55463;52.324;5.122;2023-08-21T13:36:58;31.23;54.38
67275;DHT22;55463;52.324;5.122;2023-08-21T13:39:24;31.47;52.73
67275;DHT22;55463;52.324;5.122;2023-08-21T13:41:51;31.88;54.06
67275;DHT22;55463;52.324;5.122;2023-08-21T13:44:17;31.82;52.94
67275;DHT22;55463;52.324;5.122;2023-08-21T13:46:42;31.85;52.93
67275;DHT22;55463;52.324;5.122;2023-08-21T13:49:08;32.06;52.61
67275;DHT22;55463;52.324;5.122;2023-08-21T13:51:34;32.22;53.40
67275;DHT22;55463;52.324;5.122;2023-08-21T13:53:59;32.26;51.56
67275;DHT22;55463;52.324;5.122;2023-08-21T13:56:25;32.30;49.21
67275;DHT22;55463;52.324;5.122;2023-08-21T13:58:50;32.15;50.71
67275;DHT22;55463;52.324;5.122;2023-08-21T14:01:16;32.16;51.18
67275;DHT22;55463;52.324;5.122;2023-08-21T14:03:41;32.32;52.56
67275;DHT22;55463;52.324;5.122;2023-08-21T14:06:07;32.17;50.85
67275;DHT22;55463;52.324;5.122;2023-08-21T14:08:35;31.75;51.79
67275;DHT22;55463;52.324;5.122;2023-08-21T14:11:01;31.52;52.09
67275;DHT22;55463;52.324;5.122;2023-08-21T14:13:26;31.52;52.72
67275;DHT22;55463;52.324;5.122;2023-08-21T14:15:52;31.71;52.73
67275;DHT22;55463;52.324;5.122;2023-08-21T14:18:17;31.75;51.23
67275;DHT22;55463;52.324;5.122;2023-08-21T14:20:42;31.82;52.37
67275;DHT22;55463;52.324;5.122;2023-08-21T14:23:08;31.79;51.64
67275;DHT22;55463;52.324;5.122;2023-08-21T14:25:33;31.65;53.97
67275;DHT22;55463;52.324;5.122;2023-08-21T14:27:58;31.41;52.06
67275;DHT22;55463;52.324;5.122;2023-08-21T14:30:24;31.51;53.71
67275;DHT22;55463;52.324;5.122;2023-08-21T14:32:49;31.67;53.75
67275;DHT22;55463;52.324;5.122;2023-08-21T14:35:15;31.51;53.83
67275;DHT22;55463;52.324;5.122;2023-08-21T14:37:40;31.37;53.06
67275;DHT22;55463;52.324;5.122;2023-08-21T14:40:06;31.31;54.04
67275;DHT22;55463;52.324;5.122;2023-08-21T14:42:35;31.24;53.10
67275;DHT22;55463;52.324;5.122;2023-08-21T14:45:01;31.15;53.05
67275;DHT22;55463;52.324;5.122;2023-08-21T14:47:28;31.26;53.63
67275;DHT22;55463;52.324;5.122;2023-08-21T14:49:53;31.06;53.50
67275;DHT22;55463;52.324;5.122;2023-08-21T14:52:20;30.98;53.29
67275;DHT22;55463;52.324;5.122;2023-08-21T14:54:45;30.82;52.28
67275;DHT22;55463;52.324;5.122;2023-08-21T14:57:11;30.81;53.65
67275;DHT22;55463;52.324;5.122;2023-08-21T14:59:36;30.99;53.73
67275;DHT22;55463;52.324;5.122;2023-08-21T15:02:01;30.88;54.79
67275;DHT22;55463;52.324;5.122;2023-08-21T15:04:27;30.90;53.66
67275;DHT22;55463;52.324;5.122;2023-08-21T15:06:52;30.81;54.70
67275;DHT22;55463;52.324;5.122;2023-08-21T15:09:18;30.74;54.69
67275;DHT22;55463;52.324;5.122;2023-08-21T15:11:43;30.47;54.42
67275;DHT22;55463;52.324;5.122;2023-08-21T15:14:10;30.64;55.73
67275;DHT22;55463;52.324;5.122;2023-08-21T15:16:36;30.60;54.96
67275;DHT22;55463;52.324;5.122;2023-08-21T15:19:02;30.47;54.61
67275;DHT22;55463;52.324;5.122;2023-08-21T15:21:28;30.40;54.79
67275;DHT22;55463;52.324;5.122;2023-08-21T15:23:53;30.36;56.63
67275;DHT22;55463;52.324;5.122;2023-08-21T15:26:19;30.41;56.34
67275;DHT22;55463;52.324;5.122;2023-08-21T15:28:45;30.23;54.19
67275;DHT22;55463;52.324;5.122;2023-08-21T15:31:10;30.28;55.56
67275;DHT22;55463;52.324;5.122;2023-08-21T15:33:36;30.20;55.46
67275;DHT22;55463;52.324;5.122;2023-08-21T15:36:01;29.90;54.58